sensor_id;sensor_type;location;lat;lon;timestamp;P1;durP1;ratioP1;P2;durP2;ratioP2
47239;SDS011;32978;53.586;10.052;2022-12-04T00:01:37;52.28;;;30.08;;
47239;SDS011;32978;53.586;10.052;2022-12-04T00:06:33;49.80;;;29.40;;
47239;SDS011;32978;53.586;10.052;2022-12-04T00:11:30;47.60;;;28.70;;
47239;SDS011;32978;53.586;10.052;2022-12-04T00:16:27;44.25;;;28.25;;
47239;SDS011;32978;53.586;10.052;2022-12-04T00:21:24;51.10;;;29.63;;
47239;SDS011;32978;53.586;10.052;2022-12-04T00:26:22;44.20;;;27.67;;
47239;SDS011;32978;53.586;10.052;2022-12-04T00:31:20;44.85;;;28.38;;
47239;SDS011;32978;53.586;10.052;2022-12-04T00:36:18;50.05;;;29.98;;
47239;SDS011;32978;53.586;10.052;2022-12-04T00:41:15;48.47;;;30.52;;
47239;SDS011;32978;53.586;10.052;2022-12-04T00:46:12;43.05;;;27.73;;
47239;SDS011;32978;53.586;10.052;2022-12-04T00:51:10;45.20;;;27.95;;
47239;SDS011;32978;53.586;10.052;2022-12-04T00:56:07;42.97;;;26.42;;
47239;SDS011;32978;53.586;10.052;2022-12-04T01:01:06;45.58;;;27.25;;
47239;SDS011;32978;53.586;10.052;2022-12-04T01:06:03;46.85;;;26.80;;
47239;SDS011;32978;53.586;10.052;2022-12-04T01:11:03;47.58;;;29.25;;
47239;SDS011;32978;53.586;10.052;2022-12-04T01:15:59;40.92;;;26.77;;
47239;SDS011;32978;53.586;10.052;2022-12-04T01:20:56;52.22;;;28.98;;
47239;SDS011;32978;53.586;10.052;2022-12-04T01:25:53;46.13;;;27.52;;
47239;SDS011;32978;53.586;10.052;2022-12-04T01:30:59;45.15;;;27.17;;
47239;SDS011;32978;53.586;10.052;2022-12-04T01:35:56;47.67;;;27.88;;
47239;SDS011;32978;53.586;10.052;2022-12-04T01:40:53;48.67;;;29.33;;
47239;SDS011;32978;53.586;10.052;2022-12-04T01:45:53;46.08;;;28.40;;
47239;SDS011;32978;53.586;10.052;2022-12-04T01:50:51;45.55;;;27.88;;
47239;SDS011;32978;53.586;10.052;2022-12-04T01:55:49;50.17;;;28.50;;
47239;SDS011;32978;53.586;10.052;2022-12-04T02:00:45;53.47;;;30.20;;
47239;SDS011;32978;53.586;10.052;2022-12-04T02:05:46;47.08;;;27.85;;
47239;SDS011;32978;53.586;10.052;2022-12-04T02:10:59;51.10;;;30.35;;
47239;SDS011;32978;53.586;10.052;2022-12-04T02:16:12;53.25;;;31.08;;
47239;SDS011;32978;53.586;10.052;2022-12-04T02:26:18;44.25;;;28.52;;
47239;SDS011;32978;53.586;10.052;2022-12-04T02:31:18;48.20;;;29.95;;
47239;SDS011;32978;53.586;10.052;2022-12-04T02:36:20;47.30;;;27.40;;
47239;SDS011;32978;53.586;10.052;2022-12-04T02:41:33;46.90;;;28.33;;
47239;SDS011;32978;53.586;10.052;2022-12-04T02:46:39;46.60;;;29.90;;
47239;SDS011;32978;53.586;10.052;2022-12-04T02:51:36;51.05;;;30.52;;
47239;SDS011;32978;53.586;10.052;2022-12-04T02:56:35;55.78;;;29.77;;
47239;SDS011;32978;53.586;10.052;2022-12-04T03:01:37;46.53;;;28.35;;
47239;SDS011;32978;53.586;10.052;2022-12-04T03:06:35;53.37;;;29.70;;
47239;SDS011;32978;53.586;10.052;2022-12-04T03:11:32;45.65;;;27.80;;
47239;SDS011;32978;53.586;10.052;2022-12-04T03:16:32;53.58;;;29.88;;
47239;SDS011;32978;53.586;10.052;2022-12-04T03:21:31;47.22;;;29.38;;
47239;SDS011;32978;53.586;10.052;2022-12-04T03:31:41;53.10;;;30.98;;
47239;SDS011;32978;53.586;10.052;2022-12-04T03:36:46;45.20;;;27.40;;
47239;SDS011;32978;53.586;10.052;2022-12-04T03:41:53;46.55;;;29.33;;
47239;SDS011;32978;53.586;10.052;2022-12-04T03:51:57;48.67;;;29.52;;
47239;SDS011;32978;53.586;10.052;2022-12-04T04:02:21;50.55;;;31.15;;
47239;SDS011;32978;53.586;10.052;2022-12-04T04:07:27;51.25;;;30.45;;
47239;SDS011;32978;53.586;10.052;2022-12-04T04:12:31;50.47;;;31.05;;
47239;SDS011;32978;53.586;10.052;2022-12-04T04:17:32;45.88;;;29.27;;
47239;SDS011;32978;53.586;10.052;2022-12-04T04:22:48;54.65;;;31.33;;
47239;SDS011;32978;53.586;10.052;2022-12-04T04:28:04;48.33;;;29.95;;
47239;SDS011;32978;53.586;10.052;2022-12-04T04:33:10;51.63;;;29.95;;
47239;SDS011;32978;53.586;10.052;2022-12-04T04:43:08;52.05;;;32.22;;
47239;SDS011;32978;53.586;10.052;2022-12-04T04:48:09;46.13;;;31.30;;
47239;SDS011;32978;53.586;10.052;2022-12-04T04:53:09;54.58;;;31.00;;
47239;SDS011;32978;53.586;10.052;2022-12-04T04:58:08;50.58;;;30.60;;
47239;SDS011;32978;53.586;10.052;2022-12-04T05:03:04;48.78;;;32.70;;
47239;SDS011;32978;53.586;10.052;2022-12-04T05:08:01;54.60;;;33.20;;
47239;SDS011;32978;53.586;10.052;2022-12-04T05:12:57;49.20;;;30.90;;
47239;SDS011;32978;53.586;10.052;2022-12-04T05:17:54;48.58;;;31.48;;
47239;SDS011;32978;53.586;10.052;2022-12-04T05:22:50;48.03;;;29.88;;
47239;SDS011;32978;53.586;10.052;2022-12-04T05:27:46;50.00;;;31.00;;
47239;SDS011;32978;53.586;10.052;2022-12-04T05:32:43;49.13;;;32.28;;
47239;SDS011;32978;53.586;10.052;2022-12-04T05:37:39;53.05;;;31.83;;
47239;SDS011;32978;53.586;10.052;2022-12-04T05:42:35;47.20;;;32.13;;
47239;SDS011;32978;53.586;10.052;2022-12-04T05:47:36;48.60;;;31.13;;
47239;SDS011;32978;53.586;10.052;2022-12-04T05:52:32;49.60;;;31.35;;
47239;SDS011;32978;53.586;10.052;2022-12-04T05:57:28;47.10;;;32.60;;
47239;SDS011;32978;53.586;10.052;2022-12-04T06:02:25;53.75;;;32.60;;
47239;SDS011;32978;53.586;10.052;2022-12-04T06:07:21;53.35;;;32.60;;
47239;SDS011;32978;53.586;10.052;2022-12-04T06:12:17;51.63;;;31.98;;
47239;SDS011;32978;53.586;10.052;2022-12-04T06:17:14;54.25;;;32.30;;
47239;SDS011;32978;53.586;10.052;2022-12-04T06:22:10;55.60;;;33.20;;
47239;SDS011;32978;53.586;10.052;2022-12-04T06:27:06;51.90;;;33.65;;
47239;SDS011;32978;53.586;10.052;2022-12-04T06:32:23;49.88;;;33.35;;
47239;SDS011;32978;53.586;10.052;2022-12-04T06:37:20;56.67;;;34.75;;
47239;SDS011;32978;53.586;10.052;2022-12-04T06:42:16;56.33;;;33.88;;
47239;SDS011;32978;53.586;10.052;2022-12-04T06:47:13;52.10;;;35.08;;
47239;SDS011;32978;53.586;10.052;2022-12-04T06:52:09;53.08;;;34.53;;
47239;SDS011;32978;53.586;10.052;2022-12-04T06:57:05;51.28;;;33.05;;
47239;SDS011;32978;53.586;10.052;2022-12-04T07:02:02;55.45;;;33.72;;
47239;SDS011;32978;53.586;10.052;2022-12-04T07:06:58;56.85;;;34.85;;
47239;SDS011;32978;53.586;10.052;2022-12-04T07:11:54;51.95;;;35.65;;
47239;SDS011;32978;53.586;10.052;2022-12-04T07:16:51;60.42;;;35.10;;
47239;SDS011;32978;53.586;10.052;2022-12-04T07:21:47;63.22;;;34.53;;
47239;SDS011;32978;53.586;10.052;2022-12-04T07:26:43;59.50;;;35.55;;
47239;SDS011;32978;53.586;10.052;2022-12-04T07:31:40;55.90;;;36.00;;
47239;SDS011;32978;53.586;10.052;2022-12-04T07:36:37;57.53;;;34.92;;
47239;SDS011;32978;53.586;10.052;2022-12-04T07:41:33;58.38;;;35.47;;
47239;SDS011;32978;53.586;10.052;2022-12-04T07:46:30;58.38;;;36.38;;
47239;SDS011;32978;53.586;10.052;2022-12-04T07:51:27;59.15;;;37.53;;
47239;SDS011;32978;53.586;10.052;2022-12-04T07:56:34;56.67;;;36.85;;
47239;SDS011;32978;53.586;10.052;2022-12-04T08:01:42;62.95;;;36.55;;
47239;SDS011;32978;53.586;10.052;2022-12-04T08:06:38;56.67;;;36.45;;
47239;SDS011;32978;53.586;10.052;2022-12-04T08:11:35;58.22;;;36.42;;
47239;SDS011;32978;53.586;10.052;2022-12-04T08:16:31;58.10;;;36.03;;
47239;SDS011;32978;53.586;10.052;2022-12-04T08:21:28;64.43;;;37.88;;
47239;SDS011;32978;53.586;10.052;2022-12-04T08:26:26;63.53;;;39.72;;
47239;SDS011;32978;53.586;10.052;2022-12-04T08:31:24;58.20;;;38.38;;
47239;SDS011;32978;53.586;10.052;2022-12-04T08:36:20;59.22;;;37.17;;
47239;SDS011;32978;53.586;10.052;2022-12-04T08:41:18;60.17;;;36.95;;
47239;SDS011;32978;53.586;10.052;2022-12-04T08:46:16;64.80;;;38.03;;
47239;SDS011;32978;53.586;10.052;2022-12-04T08:51:14;60.92;;;37.28;;
47239;SDS011;32978;53.586;10.052;2022-12-04T08:56:11;60.25;;;38.92;;
47239;SDS011;32978;53.586;10.052;2022-12-04T09:01:09;54.35;;;35.92;;
47239;SDS011;32978;53.586;10.052;2022-12-04T09:06:05;57.67;;;35.95;;
47239;SDS011;32978;53.586;10.052;2022-12-04T09:11:04;54.72;;;33.17;;
47239;SDS011;32978;53.586;10.052;2022-12-04T09:16:04;58.78;;;36.90;;
47239;SDS011;32978;53.586;10.052;2022-12-04T09:21:03;39.40;;;28.85;;
47239;SDS011;32978;53.586;10.052;2022-12-04T09:26:00;57.88;;;34.35;;
47239;SDS011;32978;53.586;10.052;2022-12-04T09:31:00;55.28;;;35.58;;
47239;SDS011;32978;53.586;10.052;2022-12-04T09:35:57;56.90;;;34.33;;
47239;SDS011;32978;53.586;10.052;2022-12-04T09:40:58;59.28;;;35.92;;
47239;SDS011;32978;53.586;10.052;2022-12-04T09:45:57;54.03;;;33.30;;
47239;SDS011;32978;53.586;10.052;2022-12-04T09:50:56;51.72;;;34.10;;
47239;SDS011;32978;53.586;10.052;2022-12-04T09:56:05;55.60;;;35.03;;
47239;SDS011;32978;53.586;10.052;2022-12-04T10:01:02;48.40;;;33.10;;
47239;SDS011;32978;53.586;10.052;2022-12-04T10:06:13;56.90;;;34.67;;
47239;SDS011;32978;53.586;10.052;2022-12-04T10:11:37;55.33;;;35.17;;
47239;SDS011;32978;53.586;10.052;2022-12-04T10:26:46;43.58;;;32.17;;
47239;SDS011;32978;53.586;10.052;2022-12-04T10:31:44;48.75;;;31.85;;
47239;SDS011;32978;53.586;10.052;2022-12-04T10:36:42;47.47;;;33.35;;
47239;SDS011;32978;53.586;10.052;2022-12-04T10:41:58;46.90;;;32.30;;
47239;SDS011;32978;53.586;10.052;2022-12-04T10:46:57;48.33;;;32.50;;
47239;SDS011;32978;53.586;10.052;2022-12-04T10:51:54;44.78;;;31.48;;
47239;SDS011;32978;53.586;10.052;2022-12-04T10:56:55;45.08;;;31.02;;
47239;SDS011;32978;53.586;10.052;2022-12-04T11:01:58;48.92;;;32.75;;
47239;SDS011;32978;53.586;10.052;2022-12-04T11:07:03;47.22;;;34.20;;
47239;SDS011;32978;53.586;10.052;2022-12-04T11:17:25;54.53;;;34.30;;
47239;SDS011;32978;53.586;10.052;2022-12-04T11:22:22;45.13;;;31.15;;
47239;SDS011;32978;53.586;10.052;2022-12-04T11:27:21;50.30;;;34.00;;
47239;SDS011;32978;53.586;10.052;2022-12-04T11:32:22;51.65;;;32.85;;
47239;SDS011;32978;53.586;10.052;2022-12-04T11:37:21;45.47;;;31.37;;
47239;SDS011;32978;53.586;10.052;2022-12-04T11:42:27;43.50;;;31.13;;
47239;SDS011;32978;53.586;10.052;2022-12-04T11:47:25;51.40;;;34.78;;
47239;SDS011;32978;53.586;10.052;2022-12-04T11:52:28;45.40;;;32.50;;
47239;SDS011;32978;53.586;10.052;2022-12-04T12:12:33;46.70;;;33.70;;
47239;SDS011;32978;53.586;10.052;2022-12-04T12:22:37;44.50;;;33.53;;
47239;SDS011;32978;53.586;10.052;2022-12-04T12:37:56;45.15;;;31.38;;
47239;SDS011;32978;53.586;10.052;2022-12-04T12:43:02;42.05;;;32.28;;
47239;SDS011;32978;53.586;10.052;2022-12-04T12:48:05;42.13;;;31.50;;
47239;SDS011;32978;53.586;10.052;2022-12-04T12:53:06;43.38;;;31.65;;
47239;SDS011;32978;53.586;10.052;2022-12-04T12:58:08;43.40;;;30.70;;
47239;SDS011;32978;53.586;10.052;2022-12-04T13:08:23;43.58;;;33.03;;
47239;SDS011;32978;53.586;10.052;2022-12-04T13:13:25;43.53;;;32.58;;
47239;SDS011;32978;53.586;10.052;2022-12-04T13:18:33;42.65;;;32.08;;
47239;SDS011;32978;53.586;10.052;2022-12-04T13:44:30;37.28;;;29.30;;
47239;SDS011;32978;53.586;10.052;2022-12-04T13:49:31;37.58;;;30.50;;
47239;SDS011;32978;53.586;10.052;2022-12-04T13:54:30;38.28;;;31.42;;
47239;SDS011;32978;53.586;10.052;2022-12-04T14:14:21;41.13;;;34.10;;
47239;SDS011;32978;53.586;10.052;2022-12-04T14:24:37;42.13;;;35.70;;
47239;SDS011;32978;53.586;10.052;2022-12-04T14:30:10;40.40;;;35.78;;
47239;SDS011;32978;53.586;10.052;2022-12-04T14:34:55;41.80;;;35.03;;
47239;SDS011;32978;53.586;10.052;2022-12-04T14:39:54;47.42;;;38.72;;
47239;SDS011;32978;53.586;10.052;2022-12-04T14:44:57;47.83;;;39.00;;
47239;SDS011;32978;53.586;10.052;2022-12-04T14:50:03;49.85;;;39.72;;
47239;SDS011;32978;53.586;10.052;2022-12-04T14:55:06;46.33;;;39.22;;
47239;SDS011;32978;53.586;10.052;2022-12-04T15:00:16;49.42;;;41.15;;
47239;SDS011;32978;53.586;10.052;2022-12-04T15:05:23;47.25;;;40.78;;
47239;SDS011;32978;53.586;10.052;2022-12-04T15:10:22;52.55;;;42.65;;
47239;SDS011;32978;53.586;10.052;2022-12-04T15:15:42;53.10;;;40.72;;
47239;SDS011;32978;53.586;10.052;2022-12-04T15:25:49;52.38;;;42.83;;
47239;SDS011;32978;53.586;10.052;2022-12-04T15:30:47;54.50;;;44.65;;
47239;SDS011;32978;53.586;10.052;2022-12-04T15:35:46;48.85;;;42.90;;
47239;SDS011;32978;53.586;10.052;2022-12-04T15:40:48;55.88;;;45.88;;
47239;SDS011;32978;53.586;10.052;2022-12-04T15:45:45;53.58;;;45.08;;
47239;SDS011;32978;53.586;10.052;2022-12-04T15:50:42;55.40;;;48.20;;
47239;SDS011;32978;53.586;10.052;2022-12-04T15:55:39;56.15;;;48.17;;
47239;SDS011;32978;53.586;10.052;2022-12-04T16:00:42;53.38;;;44.50;;
47239;SDS011;32978;53.586;10.052;2022-12-04T16:05:39;44.72;;;40.65;;
47239;SDS011;32978;53.586;10.052;2022-12-04T16:10:35;52.42;;;46.85;;
47239;SDS011;32978;53.586;10.052;2022-12-04T16:15:41;53.80;;;44.90;;
47239;SDS011;32978;53.586;10.052;2022-12-04T16:20:39;54.17;;;48.35;;
47239;SDS011;32978;53.586;10.052;2022-12-04T16:25:36;53.08;;;47.25;;
47239;SDS011;32978;53.586;10.052;2022-12-04T16:30:33;51.38;;;45.47;;
47239;SDS011;32978;53.586;10.052;2022-12-04T16:35:30;52.28;;;46.35;;
47239;SDS011;32978;53.586;10.052;2022-12-04T16:40:27;52.42;;;47.03;;
47239;SDS011;32978;53.586;10.052;2022-12-04T16:45:25;53.58;;;47.97;;
47239;SDS011;32978;53.586;10.052;2022-12-04T16:50:25;52.50;;;47.20;;
47239;SDS011;32978;53.586;10.052;2022-12-04T17:00:18;55.92;;;50.10;;
47239;SDS011;32978;53.586;10.052;2022-12-04T17:05:18;50.80;;;45.78;;
47239;SDS011;32978;53.586;10.052;2022-12-04T17:10:15;54.70;;;49.22;;
47239;SDS011;32978;53.586;10.052;2022-12-04T17:15:18;58.10;;;52.28;;
47239;SDS011;32978;53.586;10.052;2022-12-04T17:20:15;49.30;;;44.80;;
47239;SDS011;32978;53.586;10.052;2022-12-04T17:25:12;56.00;;;50.42;;
47239;SDS011;32978;53.586;10.052;2022-12-04T17:30:09;53.80;;;48.25;;
47239;SDS011;32978;53.586;10.052;2022-12-04T17:35:06;59.35;;;50.33;;
47239;SDS011;32978;53.586;10.052;2022-12-04T17:40:04;56.40;;;51.17;;
47239;SDS011;32978;53.586;10.052;2022-12-04T17:45:01;55.58;;;50.00;;
47239;SDS011;32978;53.586;10.052;2022-12-04T17:49:58;56.22;;;51.08;;
47239;SDS011;32978;53.586;10.052;2022-12-04T17:54:54;52.92;;;48.30;;
47239;SDS011;32978;53.586;10.052;2022-12-04T17:59:52;55.47;;;50.38;;
47239;SDS011;32978;53.586;10.052;2022-12-04T18:04:48;53.03;;;48.05;;
47239;SDS011;32978;53.586;10.052;2022-12-04T18:09:45;53.60;;;48.45;;
47239;SDS011;32978;53.586;10.052;2022-12-04T18:14:43;52.70;;;47.72;;
47239;SDS011;32978;53.586;10.052;2022-12-04T18:19:49;50.10;;;45.55;;
47239;SDS011;32978;53.586;10.052;2022-12-04T18:24:46;51.03;;;46.25;;
47239;SDS011;32978;53.586;10.052;2022-12-04T18:29:45;50.05;;;45.08;;
47239;SDS011;32978;53.586;10.052;2022-12-04T18:34:44;47.35;;;42.95;;
47239;SDS011;32978;53.586;10.052;2022-12-04T18:39:41;48.28;;;43.72;;
47239;SDS011;32978;53.586;10.052;2022-12-04T18:44:37;47.80;;;43.30;;
47239;SDS011;32978;53.586;10.052;2022-12-04T18:49:35;47.92;;;43.15;;
47239;SDS011;32978;53.586;10.052;2022-12-04T18:54:33;46.97;;;42.90;;
47239;SDS011;32978;53.586;10.052;2022-12-04T18:59:32;47.20;;;42.95;;
47239;SDS011;32978;53.586;10.052;2022-12-04T19:04:30;43.35;;;39.50;;
47239;SDS011;32978;53.586;10.052;2022-12-04T19:09:27;48.40;;;43.65;;
47239;SDS011;32978;53.586;10.052;2022-12-04T19:14:44;47.80;;;43.22;;
47239;SDS011;32978;53.586;10.052;2022-12-04T19:19:43;43.95;;;39.85;;
47239;SDS011;32978;53.586;10.052;2022-12-04T19:24:40;47.05;;;42.50;;
47239;SDS011;32978;53.586;10.052;2022-12-04T19:29:37;47.50;;;42.92;;
47239;SDS011;32978;53.586;10.052;2022-12-04T19:34:34;47.25;;;42.20;;
47239;SDS011;32978;53.586;10.052;2022-12-04T19:39:33;46.42;;;41.40;;
47239;SDS011;32978;53.586;10.052;2022-12-04T19:44:29;45.15;;;40.53;;
47239;SDS011;32978;53.586;10.052;2022-12-04T19:49:45;39.97;;;35.92;;
47239;SDS011;32978;53.586;10.052;2022-12-04T19:54:42;43.15;;;38.55;;
47239;SDS011;32978;53.586;10.052;2022-12-04T19:59:39;45.50;;;40.38;;
47239;SDS011;32978;53.586;10.052;2022-12-04T20:04:41;43.90;;;39.28;;
47239;SDS011;32978;53.586;10.052;2022-12-04T20:09:44;43.10;;;38.55;;
47239;SDS011;32978;53.586;10.052;2022-12-04T20:14:47;44.00;;;39.13;;
47239;SDS011;32978;53.586;10.052;2022-12-04T20:19:44;43.15;;;38.72;;
47239;SDS011;32978;53.586;10.052;2022-12-04T20:24:43;41.50;;;37.10;;
47239;SDS011;32978;53.586;10.052;2022-12-04T20:29:39;40.75;;;36.55;;
47239;SDS011;32978;53.586;10.052;2022-12-04T20:34:36;41.33;;;36.85;;
47239;SDS011;32978;53.586;10.052;2022-12-04T20:39:38;42.17;;;37.63;;
47239;SDS011;32978;53.586;10.052;2022-12-04T20:44:35;34.03;;;30.60;;
47239;SDS011;32978;53.586;10.052;2022-12-04T20:49:36;40.70;;;36.55;;
47239;SDS011;32978;53.586;10.052;2022-12-04T20:54:32;39.38;;;35.28;;
47239;SDS011;32978;53.586;10.052;2022-12-04T20:59:36;40.47;;;35.28;;
47239;SDS011;32978;53.586;10.052;2022-12-04T21:04:36;37.28;;;33.33;;
47239;SDS011;32978;53.586;10.052;2022-12-04T21:09:33;39.70;;;35.63;;
47239;SDS011;32978;53.586;10.052;2022-12-04T21:14:30;41.97;;;37.65;;
47239;SDS011;32978;53.586;10.052;2022-12-04T21:19:46;42.58;;;38.08;;
47239;SDS011;32978;53.586;10.052;2022-12-04T21:24:45;40.35;;;36.28;;
47239;SDS011;32978;53.586;10.052;2022-12-04T21:29:42;45.65;;;40.65;;
47239;SDS011;32978;53.586;10.052;2022-12-04T21:34:39;41.97;;;37.53;;
47239;SDS011;32978;53.586;10.052;2022-12-04T21:39:37;42.00;;;37.47;;
47239;SDS011;32978;53.586;10.052;2022-12-04T21:44:34;42.13;;;37.70;;
47239;SDS011;32978;53.586;10.052;2022-12-04T21:49:33;45.45;;;39.95;;
47239;SDS011;32978;53.586;10.052;2022-12-04T21:54:30;42.78;;;38.22;;
47239;SDS011;32978;53.586;10.052;2022-12-04T21:59:34;42.05;;;37.78;;
47239;SDS011;32978;53.586;10.052;2022-12-04T22:04:33;42.38;;;37.92;;
47239;SDS011;32978;53.586;10.052;2022-12-04T22:09:30;41.70;;;37.45;;
47239;SDS011;32978;53.586;10.052;2022-12-04T22:14:26;46.60;;;41.53;;
47239;SDS011;32978;53.586;10.052;2022-12-04T22:19:28;48.30;;;42.13;;
47239;SDS011;32978;53.586;10.052;2022-12-04T22:24:24;46.50;;;41.72;;
47239;SDS011;32978;53.586;10.052;2022-12-04T22:29:21;46.20;;;41.65;;
47239;SDS011;32978;53.586;10.052;2022-12-04T22:34:42;47.13;;;42.20;;
47239;SDS011;32978;53.586;10.052;2022-12-04T22:39:41;49.85;;;44.55;;
47239;SDS011;32978;53.586;10.052;2022-12-04T22:44:40;45.40;;;41.20;;
47239;SDS011;32978;53.586;10.052;2022-12-04T22:49:39;46.53;;;41.60;;
47239;SDS011;32978;53.586;10.052;2022-12-04T22:54:44;47.20;;;42.25;;
47239;SDS011;32978;53.586;10.052;2022-12-04T22:59:41;50.92;;;44.97;;
47239;SDS011;32978;53.586;10.052;2022-12-04T23:04:41;49.97;;;44.67;;
47239;SDS011;32978;53.586;10.052;2022-12-04T23:09:43;50.47;;;45.13;;
47239;SDS011;32978;53.586;10.052;2022-12-04T23:14:45;51.33;;;46.10;;
47239;SDS011;32978;53.586;10.052;2022-12-04T23:19:41;53.08;;;47.35;;
47239;SDS011;32978;53.586;10.052;2022-12-04T23:24:38;49.17;;;44.40;;
47239;SDS011;32978;53.586;10.052;2022-12-04T23:29:39;53.95;;;48.42;;
47239;SDS011;32978;53.586;10.052;2022-12-04T23:34:54;53.05;;;47.65;;
47239;SDS011;32978;53.586;10.052;2022-12-04T23:39:52;50.30;;;45.58;;
47239;SDS011;32978;53.586;10.052;2022-12-04T23:44:50;54.75;;;49.40;;
47239;SDS011;32978;53.586;10.052;2022-12-04T23:49:51;53.65;;;48.28;;
47239;SDS011;32978;53.586;10.052;2022-12-04T23:54:54;55.33;;;49.95;;
47239;SDS011;32978;53.586;10.052;2022-12-04T23:59:57;56.90;;;51.50;;
